Terminal Aerodrome Forecast
Issued by NWS Pueblo, CO

Home | Current Version | Previous Version | Text Only | Print | Product List | Glossary On
Versions: 1 2 3 4 5 6 7 8 9 10 11 12 13 14 15 16 17 18 19 20 21 22 23 24 25 26 27 28 29 30 31 32 33 34 35 36 37
000
FTUS45 KPUB 051720
TAFPUB
TAF
KPUB 051720Z 0518/0618 21010KT P6SM SCT120 BKN200
     FM052200 19010G20KT P6SM VCTS SCT080CB BKN140
      TEMPO 0522/0601 VRB20G35KT -TSRA BKN080CB
     FM060300 33009KT P6SM SCT080 BKN120
     FM060900 02015G25KT P6SM SCT050 BKN100
     FM061400 05013G23KT P6SM SCT030 BKN040=

USA.gov is the U.S. government's official web portal to all federal, state and local government web resources and services.